Andover, New Hampshire
Current Conditions -  °F | °C
As of 5:35 PM on Monday 20 Oct 2014 (Local Time) from KLCI Reporting Station
Clear Clear  
Wind Chill: 11°   Ceiling: Unl
Heat Index: 11°   Visibility: 10mi
Dew Point: -1°   Wind: 0mph
Humidity: 44%   Direction: NA
Pressure: 29.92"   Gusts: NA
Location:  43.44°N, 71.82°W
Report Text: KLCI 202135Z AUTO 00000KT 10SM CLR 11/M01 A2992 RMK AO1
Loading
Personal Weather Stations






























Interactive Weather Map
Tropical Storm Tracking
New forecast layout! Learn more

10-Day Weather Forecast

Advertisements
Track Severe Weather on mobile